sensor_id;sensor_type;location;lat;lon;timestamp;pressure;altitude;pressure_sealevel;temperature;humidity
31761;BME280;18335;51.486;7.562;2023-04-01T00:01:26;97998.50;;;10.09;100.00
31761;BME280;18335;51.486;7.562;2023-04-01T00:03:53;97989.69;;;10.14;100.00
31761;BME280;18335;51.486;7.562;2023-04-01T00:06:22;97991.84;;;9.92;100.00
31761;BME280;18335;51.486;7.562;2023-04-01T00:08:48;97989.50;;;10.09;100.00
31761;BME280;18335;51.486;7.562;2023-04-01T00:11:16;97988.84;;;10.07;100.00
31761;BME280;18335;51.486;7.562;2023-04-01T00:13:43;97986.38;;;9.98;100.00
31761;BME280;18335;51.486;7.562;2023-04-01T00:16:12;97987.69;;;9.89;100.00
31761;BME280;18335;51.486;7.562;2023-04-01T00:18:39;97993.53;;;9.99;100.00
31761;BME280;18335;51.486;7.562;2023-04-01T00:21:06;97987.91;;;9.94;100.00
31761;BME280;18335;51.486;7.562;2023-04-01T00:23:33;97985.97;;;9.95;100.00
31761;BME280;18335;51.486;7.562;2023-04-01T00:26:01;97992.28;;;9.95;100.00
31761;BME280;18335;51.486;7.562;2023-04-01T00:28:29;97985.38;;;9.86;100.00
31761;BME280;18335;51.486;7.562;2023-04-01T00:30:56;97991.25;;;9.90;100.00
31761;BME280;18335;51.486;7.562;2023-04-01T00:33:24;97988.94;;;9.93;100.00
31761;BME280;18335;51.486;7.562;2023-04-01T00:35:53;97982.88;;;9.91;100.00
31761;BME280;18335;51.486;7.562;2023-04-01T00:38:19;97985.38;;;9.93;100.00
31761;BME280;18335;51.486;7.562;2023-04-01T00:40:47;97997.78;;;9.82;100.00
31761;BME280;18335;51.486;7.562;2023-04-01T00:43:16;97988.56;;;9.77;100.00
31761;BME280;18335;51.486;7.562;2023-04-01T00:45:45;97990.66;;;9.81;100.00
31761;BME280;18335;51.486;7.562;2023-04-01T00:48:14;97985.59;;;9.91;100.00
31761;BME280;18335;51.486;7.562;2023-04-01T00:50:46;97988.53;;;9.90;100.00
31761;BME280;18335;51.486;7.562;2023-04-01T00:53:16;97983.75;;;9.85;100.00
31761;BME280;18335;51.486;7.562;2023-04-01T00:55:49;97975.16;;;9.82;100.00
31761;BME280;18335;51.486;7.562;2023-04-01T00:58:18;97987.69;;;9.89;100.00
31761;BME280;18335;51.486;7.562;2023-04-01T01:00:48;97979.78;;;9.81;100.00
31761;BME280;18335;51.486;7.562;2023-04-01T01:03:17;97983.59;;;9.67;100.00
31761;BME280;18335;51.486;7.562;2023-04-01T01:06:05;97984.38;;;9.81;100.00
31761;BME280;18335;51.486;7.562;2023-04-01T01:08:43;97987.31;;;9.79;100.00
31761;BME280;18335;51.486;7.562;2023-04-01T01:11:14;97986.50;;;9.72;100.00
31761;BME280;18335;51.486;7.562;2023-04-01T01:13:46;97972.66;;;9.74;100.00
31761;BME280;18335;51.486;7.562;2023-04-01T01:16:22;97978.47;;;9.90;100.00
31761;BME280;18335;51.486;7.562;2023-04-01T01:18:56;97983.75;;;9.79;100.00
31761;BME280;18335;51.486;7.562;2023-04-01T01:21:47;97974.78;;;9.72;100.00
31761;BME280;18335;51.486;7.562;2023-04-01T01:24:37;97972.19;;;9.90;100.00
31761;BME280;18335;51.486;7.562;2023-04-01T01:27:09;97974.72;;;9.91;100.00
31761;BME280;18335;51.486;7.562;2023-04-01T01:33:03;97963.84;;;9.78;100.00
31761;BME280;18335;51.486;7.562;2023-04-01T01:35:37;97959.28;;;9.72;100.00
31761;BME280;18335;51.486;7.562;2023-04-01T01:38:14;97971.19;;;9.71;100.00
31761;BME280;18335;51.486;7.562;2023-04-01T01:40:49;97963.69;;;9.73;100.00
31761;BME280;18335;51.486;7.562;2023-04-01T01:43:19;97962.41;;;9.76;100.00
31761;BME280;18335;51.486;7.562;2023-04-01T01:45:50;97967.84;;;9.76;100.00
31761;BME280;18335;51.486;7.562;2023-04-01T01:48:19;97971.41;;;9.76;100.00
31761;BME280;18335;51.486;7.562;2023-04-01T01:50:48;97959.47;;;9.71;100.00
31761;BME280;18335;51.486;7.562;2023-04-01T01:53:16;97959.25;;;9.79;100.00
31761;BME280;18335;51.486;7.562;2023-04-01T01:55:44;97962.75;;;9.92;100.00
31761;BME280;18335;51.486;7.562;2023-04-01T01:58:17;97961.59;;;9.69;100.00
31761;BME280;18335;51.486;7.562;2023-04-01T02:00:48;97962.19;;;9.77;100.00
31761;BME280;18335;51.486;7.562;2023-04-01T02:03:18;97960.53;;;9.76;100.00
31761;BME280;18335;51.486;7.562;2023-04-01T02:05:48;97958.00;;;9.75;100.00
31761;BME280;18335;51.486;7.562;2023-04-01T02:08:18;97951.94;;;9.73;100.00
31761;BME280;18335;51.486;7.562;2023-04-01T02:10:55;97960.97;;;9.67;100.00
31761;BME280;18335;51.486;7.562;2023-04-01T02:13:27;97958.84;;;9.75;100.00
31761;BME280;18335;51.486;7.562;2023-04-01T02:15:59;97960.53;;;9.76;100.00
31761;BME280;18335;51.486;7.562;2023-04-01T02:18:28;97956.38;;;9.67;100.00
31761;BME280;18335;51.486;7.562;2023-04-01T02:20:59;97964.09;;;9.70;100.00
31761;BME280;18335;51.486;7.562;2023-04-01T02:23:27;97962.16;;;9.84;100.00
31761;BME280;18335;51.486;7.562;2023-04-01T02:25:54;97963.44;;;9.81;100.00
31761;BME280;18335;51.486;7.562;2023-04-01T02:28:22;97962.84;;;9.66;100.00
31761;BME280;18335;51.486;7.562;2023-04-01T02:30:51;97959.84;;;9.81;100.00
31761;BME280;18335;51.486;7.562;2023-04-01T02:33:19;97962.84;;;9.66;100.00
31761;BME280;18335;51.486;7.562;2023-04-01T02:35:47;97963.91;;;9.65;100.00
31761;BME280;18335;51.486;7.562;2023-04-01T02:38:15;97955.13;;;9.63;100.00
31761;BME280;18335;51.486;7.562;2023-04-01T02:40:45;97965.59;;;9.66;100.00
31761;BME280;18335;51.486;7.562;2023-04-01T02:43:12;97963.47;;;9.68;100.00
31761;BME280;18335;51.486;7.562;2023-04-01T02:45:39;97965.91;;;9.83;100.00
31761;BME280;18335;51.486;7.562;2023-04-01T02:48:06;97962.25;;;9.64;100.00
31761;BME280;18335;51.486;7.562;2023-04-01T02:50:32;97957.22;;;9.61;100.00
31761;BME280;18335;51.486;7.562;2023-04-01T02:52:59;97955.94;;;9.70;100.00
31761;BME280;18335;51.486;7.562;2023-04-01T02:55:29;97951.34;;;9.64;100.00
31761;BME280;18335;51.486;7.562;2023-04-01T02:57:56;97951.34;;;9.64;100.00
31761;BME280;18335;51.486;7.562;2023-04-01T03:00:23;97954.69;;;9.66;100.00
31761;BME280;18335;51.486;7.562;2023-04-01T03:02:50;97961.19;;;9.65;100.00
31761;BME280;18335;51.486;7.562;2023-04-01T03:05:17;97951.81;;;9.55;100.00
31761;BME280;18335;51.486;7.562;2023-04-01T03:07:44;97950.09;;;9.60;100.00
31761;BME280;18335;51.486;7.562;2023-04-01T03:10:11;97954.28;;;9.56;100.00
31761;BME280;18335;51.486;7.562;2023-04-01T03:12:39;97963.09;;;9.58;100.00
31761;BME280;18335;51.486;7.562;2023-04-01T03:15:06;97965.59;;;9.66;100.00
31761;BME280;18335;51.486;7.562;2023-04-01T03:17:36;97970.69;;;9.50;100.00
31761;BME280;18335;51.486;7.562;2023-04-01T03:20:03;97963.09;;;9.58;100.00
31761;BME280;18335;51.486;7.562;2023-04-01T03:22:30;97963.13;;;9.52;100.00
31761;BME280;18335;51.486;7.562;2023-04-01T03:24:57;97967.72;;;9.51;100.00
31761;BME280;18335;51.486;7.562;2023-04-01T03:27:24;97955.97;;;9.57;100.00
31761;BME280;18335;51.486;7.562;2023-04-01T03:29:52;97969.63;;;9.44;100.00
31761;BME280;18335;51.486;7.562;2023-04-01T03:32:19;97967.31;;;9.48;100.00
31761;BME280;18335;51.486;7.562;2023-04-01T03:34:46;97967.97;;;9.36;100.00
31761;BME280;18335;51.486;7.562;2023-04-01T03:37:13;97970.25;;;9.46;100.00
31761;BME280;18335;51.486;7.562;2023-04-01T03:39:40;97962.69;;;9.55;100.00
31761;BME280;18335;51.486;7.562;2023-04-01T03:42:07;97960.22;;;9.40;100.00
31761;BME280;18335;51.486;7.562;2023-04-01T03:44:33;97957.06;;;9.43;100.00
31761;BME280;18335;51.486;7.562;2023-04-01T03:47:02;97962.28;;;9.51;100.00
31761;BME280;18335;51.486;7.562;2023-04-01T03:49:28;97965.22;;;9.50;100.00
31761;BME280;18335;51.486;7.562;2023-04-01T03:51:57;97973.19;;;9.44;100.00
31761;BME280;18335;51.486;7.562;2023-04-01T03:54:24;97975.72;;;9.39;100.00
31761;BME280;18335;51.486;7.562;2023-04-01T03:56:51;97964.16;;;9.44;100.00
31761;BME280;18335;51.486;7.562;2023-04-01T03:59:17;97967.53;;;9.46;100.00
31761;BME280;18335;51.486;7.562;2023-04-01T04:01:46;97976.13;;;9.36;100.00
31761;BME280;18335;51.486;7.562;2023-04-01T04:04:14;97978.63;;;9.44;100.00
31761;BME280;18335;51.486;7.562;2023-04-01T04:06:41;97983.22;;;9.44;100.00
31761;BME280;18335;51.486;7.562;2023-04-01T04:09:08;97990.78;;;9.42;100.00
31761;BME280;18335;51.486;7.562;2023-04-01T04:11:34;97985.09;;;9.50;100.00
31761;BME280;18335;51.486;7.562;2023-04-01T04:14:02;97992.88;;;9.47;100.00
31761;BME280;18335;51.486;7.562;2023-04-01T04:16:28;97985.75;;;9.52;100.00
31761;BME280;18335;51.486;7.562;2023-04-01T04:18:58;97990.53;;;9.50;100.00
31761;BME280;18335;51.486;7.562;2023-04-01T04:21:26;97998.69;;;9.50;100.00
31761;BME280;18335;51.486;7.562;2023-04-01T04:23:53;97999.53;;;9.51;100.00
31761;BME280;18335;51.486;7.562;2023-04-01T04:26:21;97995.78;;;9.58;100.00
31761;BME280;18335;51.486;7.562;2023-04-01T04:28:59;98002.06;;;9.52;100.00
31761;BME280;18335;51.486;7.562;2023-04-01T04:31:27;98000.38;;;9.58;100.00
31761;BME280;18335;51.486;7.562;2023-04-01T04:33:58;98005.84;;;9.51;100.00
31761;BME280;18335;51.486;7.562;2023-04-01T04:36:27;98008.75;;;9.56;100.00
31761;BME280;18335;51.486;7.562;2023-04-01T04:38:54;98005.34;;;9.74;100.00
31761;BME280;18335;51.486;7.562;2023-04-01T04:41:20;98008.53;;;9.58;100.00
31761;BME280;18335;51.486;7.562;2023-04-01T04:43:50;98004.56;;;9.60;100.00
31761;BME280;18335;51.486;7.562;2023-04-01T04:46:18;98002.00;;;9.65;100.00
31761;BME280;18335;51.486;7.562;2023-04-01T04:48:48;98008.72;;;9.63;100.00
31761;BME280;18335;51.486;7.562;2023-04-01T04:51:15;98010.59;;;9.62;100.00
31761;BME280;18335;51.486;7.562;2023-04-01T04:53:44;98017.72;;;9.70;100.00
31761;BME280;18335;51.486;7.562;2023-04-01T04:56:11;98021.28;;;9.70;100.00
31761;BME280;18335;51.486;7.562;2023-04-01T04:58:45;98019.19;;;9.72;100.00
31761;BME280;18335;51.486;7.562;2023-04-01T05:01:18;98012.44;;;9.81;100.00
31761;BME280;18335;51.486;7.562;2023-04-01T05:03:45;98024.97;;;9.95;100.00
31761;BME280;18335;51.486;7.562;2023-04-01T05:06:14;98023.13;;;9.83;100.00
31761;BME280;18335;51.486;7.562;2023-04-01T05:08:41;98018.28;;;9.91;100.00
31761;BME280;18335;51.486;7.562;2023-04-01T05:11:12;98021.63;;;9.93;100.00
31761;BME280;18335;51.486;7.562;2023-04-01T05:13:40;98016.59;;;9.90;100.00
31761;BME280;18335;51.486;7.562;2023-04-01T05:16:08;98024.75;;;9.97;100.00
31761;BME280;18335;51.486;7.562;2023-04-01T05:18:35;98021.19;;;9.96;100.00
31761;BME280;18335;51.486;7.562;2023-04-01T05:21:02;98021.97;;;10.03;100.00
31761;BME280;18335;51.486;7.562;2023-04-01T05:23:31;98025.78;;;10.02;100.00
31761;BME280;18335;51.486;7.562;2023-04-01T05:25:58;98032.97;;;9.84;100.00
31761;BME280;18335;51.486;7.562;2023-04-01T05:28:26;98020.81;;;9.86;100.00
31761;BME280;18335;51.486;7.562;2023-04-01T05:30:53;98027.50;;;9.90;100.00
31761;BME280;18335;51.486;7.562;2023-04-01T05:33:22;98023.75;;;9.85;100.00
31761;BME280;18335;51.486;7.562;2023-04-01T05:35:49;98034.56;;;10.05;100.00
31761;BME280;18335;51.486;7.562;2023-04-01T05:38:15;98036.25;;;10.06;100.00
31761;BME280;18335;51.486;7.562;2023-04-01T05:40:42;98040.84;;;10.05;100.00
31761;BME280;18335;51.486;7.562;2023-04-01T05:43:09;98039.41;;;9.96;100.00
31761;BME280;18335;51.486;7.562;2023-04-01T05:45:37;98038.75;;;10.00;100.00
31761;BME280;18335;51.486;7.562;2023-04-01T05:48:13;98045.47;;;9.98;100.00
31761;BME280;18335;51.486;7.562;2023-04-01T05:50:41;98041.06;;;10.03;100.00
31761;BME280;18335;51.486;7.562;2023-04-01T05:53:09;98042.72;;;10.18;100.00
31761;BME280;18335;51.486;7.562;2023-04-01T05:55:40;98047.06;;;10.25;100.00
31761;BME280;18335;51.486;7.562;2023-04-01T05:58:07;98041.69;;;10.12;100.00
31761;BME280;18335;51.486;7.562;2023-04-01T06:00:37;98045.03;;;10.14;100.00
31761;BME280;18335;51.486;7.562;2023-04-01T06:03:04;98038.94;;;10.19;100.00
31761;BME280;18335;51.486;7.562;2023-04-01T06:05:38;98042.97;;;10.03;100.00
31761;BME280;18335;51.486;7.562;2023-04-01T06:08:10;98052.38;;;10.00;100.00
31761;BME280;18335;51.486;7.562;2023-04-01T06:10:48;98045.81;;;10.28;100.00
31761;BME280;18335;51.486;7.562;2023-04-01T06:13:23;98047.22;;;10.37;100.00
31761;BME280;18335;51.486;7.562;2023-04-01T06:16:00;98056.53;;;10.10;100.00
31761;BME280;18335;51.486;7.562;2023-04-01T06:18:54;98053.38;;;10.26;100.00
31761;BME280;18335;51.486;7.562;2023-04-01T06:21:53;98055.22;;;10.38;100.00
31761;BME280;18335;51.486;7.562;2023-04-01T06:24:36;98055.41;;;10.37;100.00
31761;BME280;18335;51.486;7.562;2023-04-01T06:27:14;98053.53;;;10.31;100.00
31761;BME280;18335;51.486;7.562;2023-04-01T06:29:53;98063.41;;;10.32;100.00
31761;BME280;18335;51.486;7.562;2023-04-01T06:32:55;98067.19;;;10.31;100.00
31761;BME280;18335;51.486;7.562;2023-04-01T06:35:34;98069.47;;;10.34;100.00
31761;BME280;18335;51.486;7.562;2023-04-01T06:38:20;98074.75;;;10.29;100.00
31761;BME280;18335;51.486;7.562;2023-04-01T06:41:21;98066.72;;;10.40;100.00
31761;BME280;18335;51.486;7.562;2023-04-01T06:43:58;98071.31;;;10.46;100.00
31761;BME280;18335;51.486;7.562;2023-04-01T06:46:56;98073.44;;;10.38;100.00
31761;BME280;18335;51.486;7.562;2023-04-01T06:49:51;98080.59;;;10.39;100.00
31761;BME280;18335;51.486;7.562;2023-04-01T06:53:03;98077.34;;;10.55;100.00
31761;BME280;18335;51.486;7.562;2023-04-01T06:55:56;98078.72;;;10.71;100.00
31761;BME280;18335;51.486;7.562;2023-04-01T06:58:46;98071.59;;;10.70;100.00
31761;BME280;18335;51.486;7.562;2023-04-01T07:01:19;98074.66;;;10.86;100.00
31761;BME280;18335;51.486;7.562;2023-04-01T07:03:50;98082.63;;;10.81;100.00
31761;BME280;18335;51.486;7.562;2023-04-01T07:06:27;98071.53;;;10.76;100.00
31761;BME280;18335;51.486;7.562;2023-04-01T07:08:59;98085.34;;;10.81;100.00
31761;BME280;18335;51.486;7.562;2023-04-01T07:11:37;98076.91;;;10.96;100.00
31761;BME280;18335;51.486;7.562;2023-04-01T07:14:42;98080.06;;;10.93;100.00
31761;BME280;18335;51.486;7.562;2023-04-01T07:17:15;98088.50;;;10.85;100.00
31761;BME280;18335;51.486;7.562;2023-04-01T07:19:45;98094.50;;;10.62;100.00
31761;BME280;18335;51.486;7.562;2023-04-01T07:22:23;98093.81;;;10.73;100.00
31761;BME280;18335;51.486;7.562;2023-04-01T07:25:07;98091.09;;;10.73;100.00
31761;BME280;18335;51.486;7.562;2023-04-01T07:27:37;98101.09;;;10.86;100.00
31761;BME280;18335;51.486;7.562;2023-04-01T07:30:13;98099.94;;;11.00;100.00
31761;BME280;18335;51.486;7.562;2023-04-01T07:32:44;98089.50;;;10.90;100.00
31761;BME280;18335;51.486;7.562;2023-04-01T07:35:19;98101.72;;;10.81;100.00
31761;BME280;18335;51.486;7.562;2023-04-01T07:38:02;98098.66;;;10.71;100.00
31761;BME280;18335;51.486;7.562;2023-04-01T07:40:37;98111.97;;;10.92;100.00
31761;BME280;18335;51.486;7.562;2023-04-01T07:43:40;98101.00;;;10.99;100.00
31761;BME280;18335;51.486;7.562;2023-04-01T07:46:34;98108.34;;;10.98;100.00
31761;BME280;18335;51.486;7.562;2023-04-01T07:49:08;98116.34;;;10.93;100.00
31761;BME280;18335;51.486;7.562;2023-04-01T07:51:43;98117.94;;;11.07;100.00
31761;BME280;18335;51.486;7.562;2023-04-01T07:54:21;98113.44;;;10.88;100.00
31761;BME280;18335;51.486;7.562;2023-04-01T07:56:51;98117.22;;;10.87;100.00
31761;BME280;18335;51.486;7.562;2023-04-01T07:59:39;98109.66;;;10.89;100.00
31761;BME280;18335;51.486;7.562;2023-04-01T08:02:30;98118.59;;;11.03;100.00
31761;BME280;18335;51.486;7.562;2023-04-01T08:05:14;98112.81;;;10.93;100.00
31761;BME280;18335;51.486;7.562;2023-04-01T08:07:49;98119.66;;;11.02;100.00
31761;BME280;18335;51.486;7.562;2023-04-01T08:10:45;98126.81;;;10.96;100.00
31761;BME280;18335;51.486;7.562;2023-04-01T08:13:36;98126.03;;;11.21;100.00
31761;BME280;18335;51.486;7.562;2023-04-01T08:16:32;98132.56;;;11.20;100.00
31761;BME280;18335;51.486;7.562;2023-04-01T08:19:13;98133.09;;;11.03;100.00
31761;BME280;18335;51.486;7.562;2023-04-01T08:21:45;98132.66;;;11.06;100.00
31761;BME280;18335;51.486;7.562;2023-04-01T08:24:29;98133.00;;;11.17;100.00
31761;BME280;18335;51.486;7.562;2023-04-01T08:27:03;98149.84;;;11.07;100.00
31761;BME280;18335;51.486;7.562;2023-04-01T08:29:36;98137.50;;;11.04;100.00
31761;BME280;18335;51.486;7.562;2023-04-01T08:32:07;98144.09;;;11.22;100.00
31761;BME280;18335;51.486;7.562;2023-04-01T08:34:39;98151.50;;;11.08;100.00
31761;BME280;18335;51.486;7.562;2023-04-01T08:37:14;98154.84;;;11.17;100.00
31761;BME280;18335;51.486;7.562;2023-04-01T08:39:46;98156.78;;;11.41;100.00
31761;BME280;18335;51.486;7.562;2023-04-01T08:45:26;98160.75;;;11.38;100.00
31761;BME280;18335;51.486;7.562;2023-04-01T08:48:12;98156.22;;;11.57;100.00
31761;BME280;18335;51.486;7.562;2023-04-01T08:50:50;98155.84;;;11.47;100.00
31761;BME280;18335;51.486;7.562;2023-04-01T08:53:43;98159.22;;;11.49;100.00
31761;BME280;18335;51.486;7.562;2023-04-01T08:56:17;98170.03;;;11.62;100.00
31761;BME280;18335;51.486;7.562;2023-04-01T08:59:25;98167.25;;;11.44;100.00
31761;BME280;18335;51.486;7.562;2023-04-01T09:02:05;98172.00;;;11.24;100.00
31761;BME280;18335;51.486;7.562;2023-04-01T09:05:02;98184.75;;;10.98;100.00
31761;BME280;18335;51.486;7.562;2023-04-01T09:07:40;98178.41;;;11.36;100.00
31761;BME280;18335;51.486;7.562;2023-04-01T09:10:35;98179.13;;;11.25;100.00
31761;BME280;18335;51.486;7.562;2023-04-01T09:14:03;98174.63;;;11.05;100.00
31761;BME280;18335;51.486;7.562;2023-04-01T09:16:54;98184.59;;;11.25;100.00
31761;BME280;18335;51.486;7.562;2023-04-01T09:19:28;98186.53;;;11.18;100.00
31761;BME280;18335;51.486;7.562;2023-04-01T09:22:21;98185.88;;;11.22;100.00
31761;BME280;18335;51.486;7.562;2023-04-01T09:25:13;98190.88;;;11.32;100.00
31761;BME280;18335;51.486;7.562;2023-04-01T09:27:44;98191.94;;;11.24;100.00
31761;BME280;18335;51.486;7.562;2023-04-01T09:30:45;98195.16;;;11.46;100.00
31761;BME280;18335;51.486;7.562;2023-04-01T09:33:47;98198.06;;;11.20;100.00
31761;BME280;18335;51.486;7.562;2023-04-01T09:36:35;98209.34;;;11.30;100.00
31761;BME280;18335;51.486;7.562;2023-04-01T09:39:18;98210.78;;;11.01;100.00
31761;BME280;18335;51.486;7.562;2023-04-01T09:42:02;98208.56;;;11.23;100.00
31761;BME280;18335;51.486;7.562;2023-04-01T09:44:44;98205.94;;;10.96;100.00
31761;BME280;18335;51.486;7.562;2023-04-01T09:47:27;98217.84;;;11.08;100.00
31761;BME280;18335;51.486;7.562;2023-04-01T09:50:16;98222.69;;;11.06;100.00
31761;BME280;18335;51.486;7.562;2023-04-01T09:52:57;98218.13;;;11.00;100.00
31761;BME280;18335;51.486;7.562;2023-04-01T09:56:01;98224.94;;;11.23;100.00
31761;BME280;18335;51.486;7.562;2023-04-01T09:59:07;98230.78;;;11.26;100.00
31761;BME280;18335;51.486;7.562;2023-04-01T10:02:28;98234.66;;;11.05;100.00
31761;BME280;18335;51.486;7.562;2023-04-01T10:05:30;98238.09;;;10.88;100.00
31761;BME280;18335;51.486;7.562;2023-04-01T10:08:36;98245.81;;;11.04;100.00
31761;BME280;18335;51.486;7.562;2023-04-01T10:11:27;98244.72;;;11.11;100.00
31761;BME280;18335;51.486;7.562;2023-04-01T10:20:19;98252.91;;;11.11;100.00
31761;BME280;18335;51.486;7.562;2023-04-01T10:23:18;98256.63;;;11.24;100.00
31761;BME280;18335;51.486;7.562;2023-04-01T10:26:13;98259.88;;;11.07;100.00
31761;BME280;18335;51.486;7.562;2023-04-01T10:29:02;98261.22;;;11.30;100.00
31761;BME280;18335;51.486;7.562;2023-04-01T10:31:59;98264.38;;;11.27;100.00
31761;BME280;18335;51.486;7.562;2023-04-01T10:40:56;98258.75;;;11.53;100.00
31761;BME280;18335;51.486;7.562;2023-04-01T10:47:48;98256.69;;;11.48;100.00
31761;BME280;18335;51.486;7.562;2023-04-01T10:50:40;98259.91;;;11.39;100.00
31761;BME280;18335;51.486;7.562;2023-04-01T10:53:39;98268.53;;;11.36;100.00
31761;BME280;18335;51.486;7.562;2023-04-01T10:56:40;98269.69;;;11.53;100.00
31761;BME280;18335;51.486;7.562;2023-04-01T10:59:45;98265.50;;;11.50;100.00
31761;BME280;18335;51.486;7.562;2023-04-01T11:03:02;98271.03;;;11.44;100.00
31761;BME280;18335;51.486;7.562;2023-04-01T11:09:57;98278.81;;;11.40;100.00
31761;BME280;18335;51.486;7.562;2023-04-01T11:13:13;98272.94;;;11.37;100.00
31761;BME280;18335;51.486;7.562;2023-04-01T11:18:59;98276.75;;;11.67;100.00
31761;BME280;18335;51.486;7.562;2023-04-01T11:24:57;98279.69;;;11.65;100.00
31761;BME280;18335;51.486;7.562;2023-04-01T11:27:57;98281.97;;;11.68;100.00
31761;BME280;18335;51.486;7.562;2023-04-01T11:30:44;98288.63;;;11.48;100.00
31761;BME280;18335;51.486;7.562;2023-04-01T11:33:18;98291.91;;;11.25;100.00
31761;BME280;18335;51.486;7.562;2023-04-01T11:36:11;98296.25;;;11.39;100.00
31761;BME280;18335;51.486;7.562;2023-04-01T11:38:54;98294.19;;;11.35;100.00
31761;BME280;18335;51.486;7.562;2023-04-01T11:42:09;98298.78;;;11.41;100.00
31761;BME280;18335;51.486;7.562;2023-04-01T11:45:11;98298.66;;;11.60;100.00
31761;BME280;18335;51.486;7.562;2023-04-01T11:48:09;98310.81;;;11.64;100.00
31761;BME280;18335;51.486;7.562;2023-04-01T11:50:53;98314.72;;;11.44;100.00
31761;BME280;18335;51.486;7.562;2023-04-01T11:53:31;98308.00;;;11.40;100.00
31761;BME280;18335;51.486;7.562;2023-04-01T11:56:11;98320.09;;;11.57;100.00
31761;BME280;18335;51.486;7.562;2023-04-01T11:58:58;98322.69;;;11.39;100.00
31761;BME280;18335;51.486;7.562;2023-04-01T12:01:39;98323.06;;;11.55;100.00
31761;BME280;18335;51.486;7.562;2023-04-01T12:04:32;98334.50;;;11.26;100.00
31761;BME280;18335;51.486;7.562;2023-04-01T12:07:12;98334.56;;;11.20;100.00
31761;BME280;18335;51.486;7.562;2023-04-01T12:09:48;98328.81;;;11.41;100.00
31761;BME280;18335;51.486;7.562;2023-04-01T12:12:25;98344.53;;;11.39;100.00
31761;BME280;18335;51.486;7.562;2023-04-01T12:15:05;98343.53;;;11.33;100.00
31761;BME280;18335;51.486;7.562;2023-04-01T12:17:44;98345.66;;;11.25;100.00
31761;BME280;18335;51.486;7.562;2023-04-01T12:20:28;98343.69;;;11.38;100.00
31761;BME280;18335;51.486;7.562;2023-04-01T12:23:07;98352.75;;;11.39;100.00
31761;BME280;18335;51.486;7.562;2023-04-01T12:25:54;98349.06;;;11.64;100.00
31761;BME280;18335;51.486;7.562;2023-04-01T12:28:25;98358.00;;;11.40;100.00
31761;BME280;18335;51.486;7.562;2023-04-01T12:31:06;98350.31;;;11.62;100.00
31761;BME280;18335;51.486;7.562;2023-04-01T12:33:56;98356.13;;;11.85;100.00
31761;BME280;18335;51.486;7.562;2023-04-01T12:36:43;98359.44;;;11.49;100.00
31761;BME280;18335;51.486;7.562;2023-04-01T12:39:36;98356.19;;;11.72;100.00
31761;BME280;18335;51.486;7.562;2023-04-01T12:42:14;98356.94;;;11.86;100.00
31761;BME280;18335;51.486;7.562;2023-04-01T12:45:02;98362.75;;;11.96;100.00
31761;BME280;18335;51.486;7.562;2023-04-01T12:48:00;98373.28;;;11.92;100.00
31761;BME280;18335;51.486;7.562;2023-04-01T12:51:01;98368.38;;;11.76;100.00
31761;BME280;18335;51.486;7.562;2023-04-01T12:53:44;98372.41;;;11.98;100.00
31761;BME280;18335;51.486;7.562;2023-04-01T12:56:16;98367.16;;;12.03;100.00
31761;BME280;18335;51.486;7.562;2023-04-01T12:58:57;98375.31;;;11.72;100.00
31761;BME280;18335;51.486;7.562;2023-04-01T13:01:39;98376.34;;;11.71;100.00
31761;BME280;18335;51.486;7.562;2023-04-01T13:07:21;98389.81;;;11.66;100.00
31761;BME280;18335;51.486;7.562;2023-04-01T13:09:57;98390.25;;;11.56;100.00
31761;BME280;18335;51.486;7.562;2023-04-01T13:12:47;98395.84;;;11.88;100.00
31761;BME280;18335;51.486;7.562;2023-04-01T13:15:28;98395.78;;;11.94;100.00
31761;BME280;18335;51.486;7.562;2023-04-01T13:18:05;98393.28;;;11.86;100.00
31761;BME280;18335;51.486;7.562;2023-04-01T13:20:43;98406.91;;;11.99;100.00
31761;BME280;18335;51.486;7.562;2023-04-01T13:23:20;98401.25;;;11.94;100.00
31761;BME280;18335;51.486;7.562;2023-04-01T13:25:57;98415.41;;;11.78;100.00
31761;BME280;18335;51.486;7.562;2023-04-01T13:28:33;98408.59;;;12.00;100.00
31761;BME280;18335;51.486;7.562;2023-04-01T13:31:04;98420.31;;;11.50;100.00
31761;BME280;18335;51.486;7.562;2023-04-01T13:33:40;98415.00;;;11.68;100.00
31761;BME280;18335;51.486;7.562;2023-04-01T13:36:17;98431.00;;;11.64;100.00
31761;BME280;18335;51.486;7.562;2023-04-01T13:38:55;98422.44;;;11.48;100.00
31761;BME280;18335;51.486;7.562;2023-04-01T13:41:37;98435.06;;;11.49;100.00
31761;BME280;18335;51.486;7.562;2023-04-01T13:44:10;98433.78;;;11.51;100.00
31761;BME280;18335;51.486;7.562;2023-04-01T13:46:59;98437.19;;;11.40;100.00
31761;BME280;18335;51.486;7.562;2023-04-01T13:49:40;98425.63;;;11.38;100.00
31761;BME280;18335;51.486;7.562;2023-04-01T13:52:38;98437.81;;;11.42;100.00
31761;BME280;18335;51.486;7.562;2023-04-01T13:55:26;98453.22;;;11.10;100.00
31761;BME280;18335;51.486;7.562;2023-04-01T13:58:13;98452.13;;;11.31;100.00
31761;BME280;18335;51.486;7.562;2023-04-01T14:00:54;98455.06;;;11.23;100.00
31761;BME280;18335;51.486;7.562;2023-04-01T14:03:52;98451.91;;;11.26;100.00
31761;BME280;18335;51.486;7.562;2023-04-01T14:06:31;98456.97;;;11.23;100.00
31761;BME280;18335;51.486;7.562;2023-04-01T14:09:11;98463.91;;;11.19;100.00
31761;BME280;18335;51.486;7.562;2023-04-01T14:11:51;98467.25;;;11.34;100.00
31761;BME280;18335;51.486;7.562;2023-04-01T14:14:32;98476.88;;;11.36;100.00
31761;BME280;18335;51.486;7.562;2023-04-01T14:17:13;98479.03;;;11.08;100.00
31761;BME280;18335;51.486;7.562;2023-04-01T14:19:53;98474.16;;;11.30;100.00
31761;BME280;18335;51.486;7.562;2023-04-01T14:22:29;98476.72;;;11.11;100.00
31761;BME280;18335;51.486;7.562;2023-04-01T14:25:29;98489.13;;;11.07;100.00
31761;BME280;18335;51.486;7.562;2023-04-01T14:28:06;98487.81;;;11.23;100.00